createdAt,value
2023-08-15T00:01:45.471Z,43.70
2023-08-15T00:04:11.987Z,43.72
2023-08-15T00:06:38.514Z,43.72
2023-08-15T00:09:05.334Z,43.87
2023-08-15T00:11:31.828Z,43.72
2023-08-15T00:13:58.373Z,43.76
2023-08-15T00:16:25.130Z,43.84
2023-08-15T00:18:51.709Z,43.74
2023-08-15T00:21:18.197Z,43.75
2023-08-15T00:23:44.857Z,43.70
2023-08-15T00:26:11.324Z,44.16
2023-08-15T00:28:37.833Z,43.82
2023-08-15T00:31:05.310Z,43.69
2023-08-15T00:33:31.969Z,43.78
2023-08-15T00:35:58.488Z,43.91
2023-08-15T00:38:25.102Z,43.84
2023-08-15T00:40:52.166Z,43.87
2023-08-15T00:43:20.333Z,43.75
2023-08-15T00:45:47.882Z,43.66
2023-08-15T00:48:14.847Z,43.99
2023-08-15T00:50:43.170Z,43.72
2023-08-15T00:53:11.984Z,43.91
2023-08-15T00:55:39.789Z,43.83
2023-08-15T00:58:06.505Z,43.98
2023-08-15T01:00:33.426Z,43.64
2023-08-15T01:03:00.231Z,43.75
2023-08-15T01:05:29.531Z,43.73
2023-08-15T01:07:56.128Z,43.80
2023-08-15T01:10:22.725Z,43.81
2023-08-15T01:13:01.308Z,43.89
2023-08-15T01:15:33.203Z,43.84
2023-08-15T01:18:24.384Z,43.98
2023-08-15T01:20:51.818Z,43.77
2023-08-15T01:23:24.659Z,43.81
2023-08-15T01:25:55.121Z,44.00
2023-08-15T01:28:22.439Z,43.87
2023-08-15T01:30:57.481Z,43.81
2023-08-15T01:33:40.682Z,43.97
2023-08-15T01:36:13.378Z,43.86
2023-08-15T01:38:47.016Z,43.79
2023-08-15T01:41:17.931Z,43.70
2023-08-15T01:43:45.528Z,43.89
2023-08-15T01:46:13.403Z,44.00
2023-08-15T01:48:44.289Z,43.72
2023-08-15T01:51:11.831Z,44.03
2023-08-15T01:53:39.478Z,43.79
2023-08-15T01:56:06.464Z,43.92
2023-08-15T01:58:32.943Z,43.87
2023-08-15T02:00:59.790Z,43.81
2023-08-15T02:03:26.992Z,43.86
2023-08-15T02:05:53.572Z,43.58
2023-08-15T02:08:21.757Z,43.75
2023-08-15T02:10:48.256Z,44.08
2023-08-15T02:13:14.800Z,43.74
2023-08-15T02:15:41.465Z,44.00
2023-08-15T02:18:08.271Z,43.94
2023-08-15T02:20:34.932Z,44.10
2023-08-15T02:23:01.458Z,43.98
2023-08-15T02:25:27.987Z,44.09
2023-08-15T02:27:54.484Z,44.08
2023-08-15T02:30:22.759Z,44.22
2023-08-15T02:32:49.285Z,44.12
2023-08-15T02:35:15.868Z,44.11
2023-08-15T02:37:42.382Z,44.41
2023-08-15T02:40:10.796Z,44.17
2023-08-15T02:42:37.362Z,44.04
2023-08-15T02:45:05.880Z,44.05
2023-08-15T02:47:32.450Z,44.00
2023-08-15T02:49:59.769Z,43.89
2023-08-15T02:52:26.289Z,44.11
2023-08-15T02:54:52.824Z,44.02
2023-08-15T02:57:19.542Z,43.96
2023-08-15T02:59:46.246Z,43.96
2023-08-15T03:02:13.904Z,44.23
2023-08-15T03:04:40.461Z,44.12
2023-08-15T03:07:07.009Z,43.98
2023-08-15T03:09:33.560Z,44.21
2023-08-15T03:12:00.065Z,44.14
2023-08-15T03:14:30.352Z,44.19
2023-08-15T03:16:57.204Z,44.19
2023-08-15T03:19:24.064Z,44.09
2023-08-15T03:21:50.589Z,44.18
2023-08-15T03:24:17.927Z,44.05
2023-08-15T03:26:44.551Z,44.25
2023-08-15T03:29:11.681Z,44.06
2023-08-15T03:31:39.289Z,44.02
2023-08-15T03:34:05.956Z,43.90
2023-08-15T03:36:32.505Z,44.12
2023-08-15T03:38:59.094Z,44.12
2023-08-15T03:41:25.777Z,44.24
2023-08-15T03:43:52.264Z,44.09
2023-08-15T03:46:20.618Z,44.19
2023-08-15T03:48:47.321Z,44.10
2023-08-15T03:51:22.932Z,44.09
2023-08-15T03:53:59.444Z,44.36
2023-08-15T03:56:26.072Z,44.09
2023-08-15T03:58:52.755Z,44.02
2023-08-15T04:01:19.648Z,44.09
2023-08-15T04:03:48.735Z,44.32
2023-08-15T04:06:16.655Z,43.97
2023-08-15T04:08:43.140Z,44.22
2023-08-15T04:11:10.758Z,44.28
2023-08-15T04:13:37.281Z,44.08
2023-08-15T04:16:03.851Z,44.17
2023-08-15T04:18:30.417Z,44.08
2023-08-15T04:20:56.975Z,44.28
2023-08-15T04:23:23.683Z,44.08
2023-08-15T04:25:50.449Z,43.92
2023-08-15T04:28:17.256Z,44.30
2023-08-15T04:30:44.232Z,44.44
2023-08-15T04:33:10.763Z,44.26
2023-08-15T04:35:37.846Z,44.03
2023-08-15T04:38:04.827Z,44.17
2023-08-15T04:40:41.276Z,44.06
2023-08-15T04:43:09.281Z,44.35
2023-08-15T04:45:44.841Z,44.29
2023-08-15T04:48:13.545Z,44.15
2023-08-15T04:50:40.374Z,44.46
2023-08-15T04:53:07.046Z,44.38
2023-08-15T04:55:34.186Z,44.22
2023-08-15T04:58:00.961Z,44.43
2023-08-15T05:00:29.882Z,44.63
2023-08-15T05:02:57.727Z,44.09
2023-08-15T05:05:24.779Z,44.17
2023-08-15T05:07:51.396Z,44.40
2023-08-15T05:10:18.152Z,44.35
2023-08-15T05:12:44.774Z,43.99
2023-08-15T05:15:11.399Z,44.28
2023-08-15T05:17:38.037Z,44.15
2023-08-15T05:20:05.593Z,44.20
2023-08-15T05:22:33.325Z,44.38
2023-08-15T05:25:00.159Z,44.34
2023-08-15T05:27:28.079Z,44.14
2023-08-15T05:29:56.690Z,44.17
2023-08-15T05:32:23.200Z,44.09
2023-08-15T05:34:49.872Z,44.46
2023-08-15T05:37:16.584Z,44.15
2023-08-15T05:39:43.162Z,44.37
2023-08-15T05:42:09.677Z,44.21
2023-08-15T05:44:36.184Z,44.14
2023-08-15T05:47:02.762Z,44.26
2023-08-15T05:49:29.324Z,44.21
2023-08-15T05:51:55.881Z,44.40
2023-08-15T05:54:22.701Z,44.15
2023-08-15T05:56:49.358Z,44.52
2023-08-15T05:59:15.937Z,44.22
2023-08-15T06:01:42.498Z,44.40
2023-08-15T06:04:09.132Z,44.27
2023-08-15T06:06:35.684Z,44.13
2023-08-15T06:09:02.199Z,44.48
2023-08-15T06:11:28.718Z,44.63
2023-08-15T06:13:55.219Z,44.08
2023-08-15T06:16:22.038Z,44.19
2023-08-15T06:18:48.694Z,44.56
2023-08-15T06:21:15.226Z,44.34
2023-08-15T06:23:41.846Z,44.45
2023-08-15T06:26:08.351Z,44.30
2023-08-15T06:28:35.021Z,44.39
2023-08-15T06:31:01.802Z,44.33
2023-08-15T06:33:28.378Z,44.48
2023-08-15T06:35:55.094Z,44.31
2023-08-15T06:38:21.619Z,44.11
2023-08-15T06:40:48.677Z,44.18
2023-08-15T06:43:15.314Z,44.26
2023-08-15T06:45:41.952Z,44.14
2023-08-15T06:48:08.786Z,44.35
2023-08-15T06:50:35.472Z,44.30
2023-08-15T06:53:02.059Z,44.16
2023-08-15T06:55:28.652Z,44.22
2023-08-15T06:57:55.555Z,44.13
2023-08-15T07:00:22.265Z,44.21
2023-08-15T07:02:48.918Z,44.12
2023-08-15T07:05:15.699Z,44.34
2023-08-15T07:07:42.394Z,44.37
2023-08-15T07:10:09.376Z,44.40
2023-08-15T07:12:35.913Z,44.35
2023-08-15T07:15:03.021Z,44.25
2023-08-15T07:17:29.664Z,44.29
2023-08-15T07:19:56.871Z,44.10
2023-08-15T07:22:23.799Z,44.32
2023-08-15T07:24:50.882Z,44.23
2023-08-15T07:27:17.434Z,44.17
2023-08-15T07:29:44.794Z,44.28
2023-08-15T07:32:13.460Z,44.55
2023-08-15T07:34:40.617Z,44.26
2023-08-15T07:37:07.172Z,44.38
2023-08-15T07:39:33.760Z,44.15
2023-08-15T07:42:00.287Z,44.49
2023-08-15T07:44:26.940Z,44.06
2023-08-15T07:46:53.918Z,44.31
2023-08-15T07:49:20.421Z,44.53
2023-08-15T07:51:46.961Z,44.07
2023-08-15T07:54:14.444Z,44.33
2023-08-15T07:56:40.932Z,44.08
2023-08-15T07:59:07.438Z,44.38
2023-08-15T08:01:34.182Z,44.30
2023-08-15T08:04:01.890Z,44.30
2023-08-15T08:06:39.700Z,44.00
2023-08-15T08:09:07.544Z,44.19
2023-08-15T08:11:34.221Z,44.08
2023-08-15T08:14:00.833Z,44.47
2023-08-15T08:16:27.529Z,44.18
2023-08-15T08:18:54.750Z,44.56
2023-08-15T08:21:21.505Z,44.16
2023-08-15T08:23:48.143Z,44.38
2023-08-15T08:26:14.891Z,44.35
2023-08-15T08:28:41.559Z,44.38
2023-08-15T08:31:08.254Z,44.27
2023-08-15T08:33:34.915Z,44.34
2023-08-15T08:36:01.478Z,44.28
2023-08-15T08:38:28.541Z,44.20
2023-08-15T08:40:58.737Z,44.44
2023-08-15T08:43:26.584Z,44.37
2023-08-15T08:45:55.553Z,44.17
2023-08-15T08:48:22.778Z,44.35
2023-08-15T08:50:49.887Z,44.23
2023-08-15T08:53:16.694Z,44.23
2023-08-15T08:55:48.200Z,44.31
2023-08-15T08:58:15.294Z,44.14
2023-08-15T09:00:42.184Z,44.27
2023-08-15T09:03:09.878Z,44.37
2023-08-15T09:05:37.118Z,44.34
2023-08-15T09:08:04.972Z,44.13
2023-08-15T09:10:31.530Z,44.02
2023-08-15T09:13:00.646Z,44.35
2023-08-15T09:15:27.814Z,44.05
2023-08-15T09:18:06.033Z,44.17
2023-08-15T09:20:33.432Z,44.34
2023-08-15T09:23:01.331Z,44.10
2023-08-15T09:25:28.770Z,44.45
2023-08-15T09:27:55.792Z,44.31
2023-08-15T09:30:22.697Z,44.32
2023-08-15T09:32:49.882Z,44.19
2023-08-15T09:35:19.446Z,44.60
2023-08-15T09:37:48.830Z,44.22
2023-08-15T09:40:33.451Z,44.50
2023-08-15T09:43:00.334Z,44.30
2023-08-15T09:45:27.161Z,44.32
2023-08-15T09:47:53.802Z,44.43
2023-08-15T09:50:20.355Z,44.41
2023-08-15T09:52:52.587Z,44.55
2023-08-15T09:55:19.923Z,44.61
2023-08-15T09:57:47.622Z,44.37
2023-08-15T10:00:17.318Z,44.46
2023-08-15T10:02:48.607Z,44.36
2023-08-15T10:05:20.233Z,44.53
2023-08-15T10:07:47.755Z,44.75
2023-08-15T10:10:16.458Z,44.63
2023-08-15T10:12:44.825Z,44.17
2023-08-15T10:15:12.085Z,44.37
2023-08-15T10:17:39.594Z,44.52
2023-08-15T10:20:07.512Z,44.42
2023-08-15T10:22:35.319Z,44.34
2023-08-15T10:25:23.789Z,44.38
2023-08-15T10:27:53.216Z,44.35
2023-08-15T10:30:30.687Z,44.36
2023-08-15T10:33:12.702Z,44.48
2023-08-15T10:36:03.910Z,44.29
2023-08-15T10:38:40.322Z,44.14
2023-08-15T10:41:06.782Z,44.46
2023-08-15T10:43:37.072Z,44.23
2023-08-15T10:46:05.916Z,44.28
2023-08-15T10:49:01.780Z,44.12
2023-08-15T10:51:33.738Z,44.21
2023-08-15T10:54:02.357Z,44.37
2023-08-15T10:56:33.601Z,44.39
2023-08-15T10:59:05.239Z,44.31
2023-08-15T11:01:32.525Z,44.37
2023-08-15T11:03:59.559Z,44.35
2023-08-15T11:06:26.139Z,44.43
2023-08-15T11:08:54.999Z,44.16
2023-08-15T11:11:21.681Z,44.13
2023-08-15T11:13:49.926Z,44.01
2023-08-15T11:16:18.451Z,44.24
2023-08-15T11:18:45.730Z,44.30
2023-08-15T11:21:13.742Z,44.12
2023-08-15T11:23:41.265Z,44.31
2023-08-15T11:26:11.616Z,44.41
2023-08-15T11:28:38.829Z,44.44
2023-08-15T11:31:21.880Z,44.04
2023-08-15T11:33:54.997Z,44.29
2023-08-15T11:36:22.727Z,44.38
2023-08-15T11:38:49.304Z,44.27
2023-08-15T11:41:16.223Z,44.12
2023-08-15T11:43:42.919Z,44.36
2023-08-15T11:46:09.574Z,44.10
2023-08-15T11:48:36.518Z,44.17
2023-08-15T11:51:03.184Z,44.26
2023-08-15T11:53:29.880Z,43.93
2023-08-15T11:55:56.558Z,44.19
2023-08-15T11:58:30.079Z,44.12
2023-08-15T12:01:07.903Z,44.43
2023-08-15T12:03:35.394Z,44.32
2023-08-15T12:06:12.900Z,44.22
2023-08-15T12:08:42.738Z,44.00
2023-08-15T12:11:10.200Z,44.32
2023-08-15T12:13:39.698Z,44.25
2023-08-15T12:16:08.019Z,44.24
2023-08-15T12:18:35.222Z,44.25
2023-08-15T12:21:02.840Z,44.02
2023-08-15T12:23:29.849Z,44.18
2023-08-15T12:25:56.799Z,44.20
2023-08-15T12:28:23.890Z,44.02
2023-08-15T12:30:50.784Z,44.01
2023-08-15T12:33:27.628Z,44.08
2023-08-15T12:36:02.258Z,44.19
2023-08-15T12:38:29.194Z,43.90
2023-08-15T12:40:55.929Z,43.95
2023-08-15T12:43:22.411Z,43.97
2023-08-15T12:45:48.922Z,44.20
2023-08-15T12:48:15.484Z,44.09
2023-08-15T12:50:42.061Z,44.18
2023-08-15T12:53:09.860Z,44.01
2023-08-15T12:55:36.438Z,44.03
2023-08-15T12:58:04.050Z,43.93
2023-08-15T13:00:31.149Z,43.91
2023-08-15T13:02:58.886Z,44.03
2023-08-15T13:05:25.708Z,44.01
2023-08-15T13:07:52.629Z,44.21
2023-08-15T13:10:19.139Z,43.95
2023-08-15T13:12:45.599Z,44.44
2023-08-15T13:15:12.527Z,44.22
2023-08-15T13:17:39.312Z,44.15
2023-08-15T13:20:06.786Z,44.32
2023-08-15T13:22:33.344Z,44.04
2023-08-15T13:24:59.996Z,44.13
2023-08-15T13:27:26.773Z,44.06
2023-08-15T13:29:53.315Z,44.12
2023-08-15T13:32:20.050Z,44.00
2023-08-15T13:34:46.862Z,44.31
2023-08-15T13:37:13.323Z,43.89
2023-08-15T13:39:39.825Z,43.99
2023-08-15T13:42:09.594Z,43.89
2023-08-15T13:44:40.229Z,43.88
2023-08-15T13:47:06.839Z,43.77
2023-08-15T13:49:33.550Z,43.84
2023-08-15T13:52:00.113Z,44.07
2023-08-15T13:54:26.730Z,44.03
2023-08-15T13:56:55.639Z,44.06
2023-08-15T13:59:22.628Z,44.08
2023-08-15T14:01:49.191Z,44.31
2023-08-15T14:04:16.267Z,44.17
2023-08-15T14:06:42.952Z,43.94
2023-08-15T14:09:09.570Z,44.20
2023-08-15T14:11:36.148Z,44.26
2023-08-15T14:14:02.678Z,44.28
2023-08-15T14:16:29.320Z,43.99
2023-08-15T14:18:55.885Z,44.02
2023-08-15T14:21:22.361Z,44.01
2023-08-15T14:23:48.845Z,44.06
2023-08-15T14:26:15.330Z,44.13
2023-08-15T14:28:41.895Z,44.12
2023-08-15T14:31:08.486Z,44.06
2023-08-15T14:33:35.081Z,43.74
2023-08-15T14:36:01.700Z,44.11
2023-08-15T14:38:28.284Z,44.33
2023-08-15T14:40:54.873Z,43.91
2023-08-15T14:43:21.471Z,43.96
2023-08-15T14:45:48.076Z,43.81
2023-08-15T14:48:14.665Z,44.04
2023-08-15T14:50:42.268Z,44.24
2023-08-15T14:53:08.840Z,43.74
2023-08-15T14:55:35.430Z,43.85
2023-08-15T14:58:02.912Z,44.06
2023-08-15T15:00:29.406Z,43.85
2023-08-15T15:02:55.998Z,44.04
2023-08-15T15:05:23.637Z,43.85
2023-08-15T15:07:50.558Z,43.81
2023-08-15T15:10:17.240Z,43.83
2023-08-15T15:12:43.758Z,43.92
2023-08-15T15:15:10.598Z,43.99
2023-08-15T15:17:37.245Z,43.88
2023-08-15T15:20:04.873Z,43.91
2023-08-15T15:22:31.520Z,44.13
2023-08-15T15:24:58.607Z,43.71
2023-08-15T15:27:25.650Z,44.00
2023-08-15T15:29:52.373Z,44.02
2023-08-15T15:32:18.849Z,43.90
2023-08-15T15:34:45.355Z,44.05
2023-08-15T15:37:11.903Z,43.82
2023-08-15T15:39:38.371Z,43.78
2023-08-15T15:42:04.951Z,43.82
2023-08-15T15:44:35.063Z,43.74
2023-08-15T15:47:02.375Z,43.87
2023-08-15T15:49:29.088Z,43.64
2023-08-15T15:51:55.839Z,44.21
2023-08-15T15:54:22.407Z,43.77
2023-08-15T15:56:48.923Z,43.77
2023-08-15T15:59:15.517Z,43.74
2023-08-15T16:01:42.202Z,43.97
2023-08-15T16:04:09.468Z,44.00
2023-08-15T16:06:36.142Z,43.47
2023-08-15T16:09:02.623Z,43.80
2023-08-15T16:11:29.154Z,44.02
2023-08-15T16:13:55.869Z,43.81
2023-08-15T16:16:22.651Z,43.68
2023-08-15T16:18:49.182Z,43.73
2023-08-15T16:21:18.645Z,43.86
2023-08-15T16:23:45.911Z,43.78
2023-08-15T16:26:12.384Z,43.69
2023-08-15T16:28:41.125Z,43.87
2023-08-15T16:31:08.365Z,43.74
2023-08-15T16:33:35.016Z,43.70
2023-08-15T16:36:01.500Z,43.72
2023-08-15T16:38:28.826Z,43.61
2023-08-15T16:40:55.511Z,43.68
2023-08-15T16:43:22.086Z,43.73
2023-08-15T16:45:48.980Z,43.62
2023-08-15T16:48:15.720Z,43.50
2023-08-15T16:50:43.470Z,43.63
2023-08-15T16:53:10.663Z,43.92
2023-08-15T16:55:37.511Z,43.61
2023-08-15T16:58:04.342Z,43.92
2023-08-15T17:00:31.513Z,43.97
2023-08-15T17:02:58.383Z,43.56
2023-08-15T17:05:25.575Z,43.72
2023-08-15T17:07:52.416Z,43.78
2023-08-15T17:10:19.110Z,43.45
2023-08-15T17:12:47.426Z,43.80
2023-08-15T17:15:16.451Z,43.58
2023-08-15T17:17:43.654Z,43.62
2023-08-15T17:20:11.886Z,44.21
2023-08-15T17:22:38.412Z,44.04
2023-08-15T17:25:05.507Z,43.73
2023-08-15T17:27:32.420Z,43.97
2023-08-15T17:29:58.966Z,43.72
2023-08-15T17:32:26.312Z,43.69
2023-08-15T17:34:53.010Z,43.84
2023-08-15T17:37:19.477Z,43.50
2023-08-15T17:39:45.989Z,43.62
2023-08-15T17:42:12.501Z,43.83
2023-08-15T17:44:39.029Z,43.99
2023-08-15T17:47:06.052Z,43.85
2023-08-15T17:49:32.956Z,43.86
2023-08-15T17:51:59.455Z,43.93
2023-08-15T17:54:26.081Z,43.84
2023-08-15T17:56:52.828Z,43.51
2023-08-15T17:59:19.526Z,43.89
2023-08-15T18:01:46.128Z,43.78
2023-08-15T18:04:13.178Z,43.61
2023-08-15T18:06:39.788Z,43.55
2023-08-15T18:09:06.287Z,43.67
2023-08-15T18:11:33.178Z,43.73
2023-08-15T18:14:01.595Z,43.29
2023-08-15T18:16:29.240Z,43.62
2023-08-15T18:18:56.460Z,43.60
2023-08-15T18:21:23.042Z,43.70
2023-08-15T18:23:49.628Z,43.87
2023-08-15T18:26:16.921Z,43.62
2023-08-15T18:28:44.650Z,43.87
2023-08-15T18:31:11.293Z,43.69
2023-08-15T18:33:37.915Z,43.69
2023-08-15T18:36:06.146Z,43.86
2023-08-15T18:38:33.140Z,43.83
2023-08-15T18:41:00.356Z,43.51
2023-08-15T18:43:26.902Z,43.72
2023-08-15T18:45:53.649Z,43.80
2023-08-15T18:48:21.591Z,43.69
2023-08-15T18:50:48.483Z,43.67
2023-08-15T18:53:14.958Z,43.92
2023-08-15T18:55:41.776Z,43.65
2023-08-15T18:58:10.325Z,43.87
2023-08-15T19:00:37.811Z,43.66
2023-08-15T19:03:05.033Z,43.76
2023-08-15T19:05:31.697Z,43.77
2023-08-15T19:07:58.196Z,43.92
2023-08-15T19:10:24.756Z,43.59
2023-08-15T19:12:51.402Z,43.60
2023-08-15T19:15:19.219Z,43.89
2023-08-15T19:17:49.587Z,43.84
2023-08-15T19:20:17.210Z,43.68
2023-08-15T19:22:43.820Z,44.03
2023-08-15T19:25:10.730Z,43.77
2023-08-15T19:27:37.412Z,43.91
2023-08-15T19:30:04.193Z,43.71
2023-08-15T19:32:30.809Z,43.71
2023-08-15T19:34:57.322Z,43.58
2023-08-15T19:37:36.334Z,43.90
2023-08-15T19:40:04.899Z,43.93
2023-08-15T19:42:31.429Z,44.14
2023-08-15T19:44:57.941Z,43.69
2023-08-15T19:47:24.702Z,43.89
2023-08-15T19:49:51.252Z,44.06
2023-08-15T19:52:17.920Z,44.02
2023-08-15T19:54:44.582Z,43.93
2023-08-15T19:57:11.143Z,43.91
2023-08-15T19:59:37.661Z,44.09
2023-08-15T20:02:04.155Z,43.58
2023-08-15T20:04:30.670Z,43.97
2023-08-15T20:06:57.273Z,44.07
2023-08-15T20:09:24.065Z,44.08
2023-08-15T20:11:50.645Z,44.16
2023-08-15T20:14:18.661Z,44.06
2023-08-15T20:16:48.349Z,44.27
2023-08-15T20:19:14.979Z,44.45
2023-08-15T20:21:41.563Z,44.12
2023-08-15T20:24:08.522Z,44.22
2023-08-15T20:26:35.087Z,44.40
2023-08-15T20:29:01.657Z,44.23
2023-08-15T20:31:28.374Z,43.95
2023-08-15T20:33:55.073Z,44.07
2023-08-15T20:36:21.635Z,44.20
2023-08-15T20:38:48.135Z,44.03
2023-08-15T20:41:14.618Z,44.64
2023-08-15T20:43:41.261Z,44.27
2023-08-15T20:46:07.885Z,44.08
2023-08-15T20:48:34.447Z,44.04
2023-08-15T20:51:01.096Z,43.75
2023-08-15T20:53:27.655Z,44.29
2023-08-15T20:55:54.146Z,44.44
2023-08-15T20:58:20.686Z,44.27
2023-08-15T21:00:48.329Z,44.01
2023-08-15T21:03:14.913Z,43.92
2023-08-15T21:05:43.035Z,44.23
2023-08-15T21:08:09.617Z,44.10
2023-08-15T21:10:36.154Z,43.87
2023-08-15T21:13:03.149Z,44.13
2023-08-15T21:15:29.646Z,44.27
2023-08-15T21:17:56.254Z,44.10
2023-08-15T21:20:22.723Z,44.41
2023-08-15T21:22:49.193Z,44.22
2023-08-15T21:25:15.771Z,44.09
2023-08-15T21:27:42.326Z,44.17
2023-08-15T21:30:09.214Z,44.10
2023-08-15T21:32:35.811Z,44.20
2023-08-15T21:35:02.354Z,44.31
2023-08-15T21:37:28.905Z,44.20
2023-08-15T21:39:55.385Z,44.25
2023-08-15T21:42:21.845Z,44.49
2023-08-15T21:44:48.361Z,44.37
2023-08-15T21:47:14.813Z,44.37
2023-08-15T21:49:41.272Z,44.11
2023-08-15T21:52:09.678Z,44.27
2023-08-15T21:54:36.257Z,44.15
2023-08-15T21:57:06.312Z,44.29
2023-08-15T21:59:33.626Z,44.43
2023-08-15T22:02:01.114Z,44.45
2023-08-15T22:04:27.632Z,44.28
2023-08-15T22:06:54.234Z,44.18
2023-08-15T22:09:21.201Z,44.32
2023-08-15T22:11:47.732Z,44.53
2023-08-15T22:14:17.840Z,44.46
2023-08-15T22:16:44.892Z,44.04
2023-08-15T22:19:11.623Z,43.81
2023-08-15T22:21:38.230Z,44.13
2023-08-15T22:24:05.190Z,44.65
2023-08-15T22:26:31.759Z,44.37
2023-08-15T22:28:58.581Z,44.35
2023-08-15T22:31:25.083Z,44.16
2023-08-15T22:33:51.645Z,44.80
2023-08-15T22:36:18.136Z,44.27
2023-08-15T22:38:44.653Z,44.44
2023-08-15T22:41:11.151Z,44.18
2023-08-15T22:43:37.634Z,44.44
2023-08-15T22:46:04.538Z,44.05
2023-08-15T22:48:31.051Z,44.47
2023-08-15T22:50:57.720Z,44.18
2023-08-15T22:53:24.221Z,44.33
2023-08-15T22:55:50.731Z,44.45
2023-08-15T22:58:18.663Z,44.24
2023-08-15T23:00:46.676Z,44.14
2023-08-15T23:03:13.290Z,44.31
2023-08-15T23:05:39.828Z,44.03
2023-08-15T23:08:06.605Z,44.23
2023-08-15T23:10:33.194Z,44.06
2023-08-15T23:12:59.669Z,44.40
2023-08-15T23:15:26.201Z,44.24
2023-08-15T23:17:52.785Z,44.36
2023-08-15T23:20:19.303Z,44.45
2023-08-15T23:22:45.745Z,44.18
2023-08-15T23:25:12.442Z,44.40
2023-08-15T23:27:39.057Z,44.36
2023-08-15T23:30:06.698Z,44.20
2023-08-15T23:32:34.251Z,44.32
2023-08-15T23:35:00.796Z,44.32
2023-08-15T23:37:27.288Z,44.30
2023-08-15T23:39:53.795Z,44.28
2023-08-15T23:42:20.300Z,44.14
2023-08-15T23:44:46.764Z,44.38
2023-08-15T23:47:13.275Z,44.64
2023-08-15T23:49:39.781Z,44.26
2023-08-15T23:52:06.507Z,44.24
2023-08-15T23:54:33.501Z,44.41
2023-08-15T23:57:01.405Z,44.13
2023-08-15T23:59:28.242Z,44.13
